Lima, OH

10:23 PM EDT on May 27, 2015 (GMT -0400)
Findlay | | Change Station
CLOSE
Current Station
Airport
Location: Findlay,
Elevation: 810 ft
Nearby Weather Stations

Elev 810 ft 41.01 °N, 83.67 °W | Updated 30 minutes ago

Mostly Cloudy
Mostly Cloudy
68 °F
Feels Like 68 °F
N
0
Wind Variable Wind from North

Today
High -- | Low -- °F
--% Chance of Precip.
Yesterday
High -- | Low -- °F
Precip. -- in
6:09 AM 8:57 PM
Waxing Gibbous, 72% visible
Pressure 30.03 in
Visibility 10.0 miles
Clouds Few 5000 ft
Scattered Clouds 5500 ft
Mostly Cloudy 7500 ft
Dew Point 65 °F
Humidity 90%
Rainfall 0.08 in
Snow Depth Not available.
UV 0 out of 12
Pollen 8.00 out of 12
Air Quality Not available.
Flu Activity Local Activity
METAR KFDY 280153Z AUTO 00000KT 10SM FEW050 SCT055 BKN075 20/18 A3005 RMK AO2 SLP167 T02000183

More Conditions Fewer Conditions

Pressure 30.03 in
Visibility 10.0 miles
Clouds Few 5000 ft
Scattered Clouds 5500 ft
Mostly Cloudy 7500 ft
Dew Point 65 °F
Humidity 90%
Rainfall 0.08 in
Snow Depth Not available.
UV 0 out of 12
Pollen 8.00 out of 12
Air Quality Not available.
Flu Activity Local Activity
METAR KFDY 280153Z AUTO 00000KT 10SM FEW050 SCT055 BKN075 20/18 A3005 RMK AO2 SLP167 T02000183

More Conditions Fewer Conditions

10-Day Weather Forecast

Almanac

Astronomy

May. 27, 2015 Rise Set
Actual Time
Civil Twilight
Nautical Twilight
Astronomical Twilight
Moon
Length of Visible Light
Length of Day
Tomorrow will be .
, % of the Moon is Illuminated

Today's Extremes

State Highs State Lows

Community

WunderPhotos

Upload Photos

1,824,860 photos uploaded!

WunderBlogs® & News

Nearby

Air Quality

  Air Quality AQ Index Pollutant
Not available.

Snow Depth

Station Depth Elevation

Earthquake Activity

City Distance Mag. Time & Date
Minimum magnitude displayed is 2.5.

Coastal Water Temperatures

Place Temperature

Stations

Nearby Weather Stations

Station Location Temp. Windchill Dew Point Humidity Wind Precip. Elev Updated Type